Buoy 46612

sailwx.info

Track history (hours):
 
Tides and Currents Weather Stations Pressure Air Temp Water Temp Dewpoint Dewpoint Depression Visibility Wind Speed Wind Dir Waves Ship Positions

Drifting buoy 46612

Last reported at 2014-Sep-23 14:00 UTC. Time now 2014-Sep-23 16:24 UTC.
Position N 27°21' W 138°13'.

Water temperature 25.1 ° C

Date/timePositionNaut miles runAvg speedWind from/ knotsBaromVisibWave heightAir tempDewpointWater temp
2014-Sep-23 14:00N 27°21' W 138°13'0 0.3 25.1
2014-Sep-23 13:00N 27°21' W 138°13'1 0.5 25.1
2014-Sep-23 11:00N 27°21' W 138°14'1 0.2 25.2
2014-Sep-23 07:00N 27°21' W 138°15'0 0.2 25.4
2014-Sep-23 05:00N 27°21' W 138°15'1 0.2 25.4
2014-Sep-23 02:00N 27°20' W 138°15'0 0.4 26.0
2014-Sep-23 01:00N 27°20' W 138°16'0 0.5 26.0
2014-Sep-23 00:00N 27°19' W 138°16'0 0.3 26.0
2014-Sep-22 23:00N 27°19' W 138°16'0 0.1 26.3
2014-Sep-22 22:00N 27°19' W 138°16'1 0.8 26.5
2014-Sep-22 21:00N 27°18' W 138°15'0 0.3 26.1
2014-Sep-22 20:00N 27°19' W 138°15'0 0.0 25.7
2014-Sep-22 18:00N 27°19' W 138°15'1 0.4 25.0
2014-Sep-22 16:00N 27°19' W 138°14'0 0.1 24.9
2014-Sep-22 14:00N 27°19' W 138°14'0 0.4 24.9
2014-Sep-22 13:00N 27°19' W 138°14'2 0.3 24.9
2014-Sep-22 07:00N 27°20' W 138°16'2 0.5 25.0
2014-Sep-22 04:00N 27°19' W 138°17'0 0.0 25.0
2014-Sep-22 03:00N 27°19' W 138°17'0 0.4 25.1
2014-Sep-22 02:00N 27°18' W 138°17'1 0.5 25.1
2014-Sep-22 01:00N 27°18' W 138°17'1 0.8 25.2
2014-Sep-22 00:00N 27°17' W 138°17'0 0.0 25.2
2014-Sep-21 23:00N 27°17' W 138°17'0 0.0 25.2
2014-Sep-21 22:00N 27°17' W 138°17'1 0.3 25.2
2014-Sep-21 19:00N 27°17' W 138°16'1 1.1 25.0
2014-Sep-21 18:00N 27°18' W 138°16'2 1.6 24.9
2014-Sep-21 17:00N 27°16' W 138°16'1 0.6 24.9
2014-Sep-21 15:00N 27°17' W 138°16'1 0.4 24.9
2014-Sep-21 13:00N 27°18' W 138°16'2 0.3 24.9
2014-Sep-21 07:00N 27°18' W 138°18'0 0.4 25.0
2014-Sep-21 06:00N 27°18' W 138°19'0 0.4 25.2
2014-Sep-21 05:00N 27°18' W 138°19'1 0.4 25.8
2014-Sep-21 03:00N 27°17' W 138°19'0 0.1 27.1
2014-Sep-21 02:00N 27°17' W 138°19'1 0.9 27.9
2014-Sep-21 01:00N 27°16' W 138°19'1 0.6 27.2
2014-Sep-21 00:00N 27°16' W 138°19'0 0.0 27.2
2014-Sep-20 22:00N 27°16' W 138°19'1 0.4 26.9
2014-Sep-20 20:00N 27°15' W 138°18'0 0.4 25.9
2014-Sep-20 19:00N 27°16' W 138°18'0 0.3 25.4
2014-Sep-20 18:00N 27°16' W 138°18'0 0.0 25.0
2014-Sep-20 17:00N 27°16' W 138°18'1 0.3 24.8
2014-Sep-20 15:00N 27°16' W 138°17'0 0.2 24.8
2014-Sep-20 14:00N 27°16' W 138°17'0 0.3 24.8
2014-Sep-20 13:00N 27°16' W 138°18'1 0.6 24.8
2014-Sep-20 12:00N 27°16' W 138°18'0 0.1 24.8
2014-Sep-20 10:00N 27°16' W 138°18'1 0.5 24.8
2014-Sep-20 08:00N 27°17' W 138°19'0 0.2 24.8
2014-Sep-20 06:00N 27°16' W 138°19'0 0.4 24.8
2014-Sep-20 05:00N 27°17' W 138°19'0 0.1 24.9
2014-Sep-20 04:00N 27°17' W 138°19'1 0.8 24.9
2014-Sep-20 03:00N 27°16' W 138°20'0 0.4 24.9
2014-Sep-20 02:00N 27°16' W 138°20'1 0.5 25.0
2014-Sep-20 00:00N 27°15' W 138°20'1 0.5 25.0
2014-Sep-19 23:00N 27°15' W 138°20'0 0.2 25.0
2014-Sep-19 22:00N 27°15' W 138°20'0 0.0 25.0
2014-Sep-19 21:00N 27°15' W 138°20'1 0.7 24.9
2014-Sep-19 19:00N 27°14' W 138°19'1 0.3 24.8
2014-Sep-19 16:00N 27°14' W 138°18'0 0.0 24.7
2014-Sep-19 15:00N 27°14' W 138°18'1 0.4 24.7
2014-Sep-19 13:00N 27°14' W 138°18'0 0.0 24.7
2014-Sep-19 12:00N 27°14' W 138°18'0 0.0 24.7
2014-Sep-19 11:00N 27°14' W 138°18'1 0.3 24.7
2014-Sep-19 09:00N 27°14' W 138°19'0 0.1 24.8
2014-Sep-19 07:00N 27°15' W 138°19'0 0.2 24.8
2014-Sep-19 06:00N 27°14' W 138°19'0 0.4 24.8
2014-Sep-19 05:00N 27°15' W 138°19'0 0.2 24.8
2014-Sep-19 03:00N 27°15' W 138°19'1 0.6 24.9
2014-Sep-19 01:00N 27°14' W 138°20'0 0.4 25.0
2014-Sep-19 00:00N 27°14' W 138°20'0 0.2 25.0
2014-Sep-18 23:00N 27°13' W 138°20'1 0.5 25.0
2014-Sep-18 21:00N 27°12' W 138°20'1 0.3 24.9
2014-Sep-18 19:00N 27°12' W 138°20'0 0.0 24.8
2014-Sep-18 18:00N 27°12' W 138°20'1 0.3 24.7
2014-Sep-18 16:00N 27°12' W 138°19'1 1.1 24.7
2014-Sep-18 15:00N 27°12' W 138°18'1 0.3 24.7
2014-Sep-18 13:00N 27°12' W 138°18'0 0.0 24.7
2014-Sep-18 12:00N 27°12' W 138°18'0 0.1 24.8
2014-Sep-18 09:00N 27°12' W 138°19'0 0.2 24.8
2014-Sep-18 06:00N 27°12' W 138°19'0 0.2 24.9
2014-Sep-18 04:00N 27°12' W 138°19'0 0.2 25.0
2014-Sep-18 02:00N 27°12' W 138°19'1 0.6 25.1
2014-Sep-18 01:00N 27°12' W 138°19'1 0.6 25.3
2014-Sep-18 00:00N 27°12' W 138°19'1 1.1 25.6
2014-Sep-17 23:00N 27°12' W 138°21'0 0.1 25.2
2014-Sep-17 21:00N 27°12' W 138°20'0 0.0 25.2
2014-Sep-17 20:00N 27°12' W 138°20'1 0.6 24.9
2014-Sep-17 18:00N 27°11' W 138°20'0 0.1 24.7
2014-Sep-17 14:00N 27°11' W 138°19'0 0.1 24.7
2014-Sep-17 13:00N 27°11' W 138°20'0 0.2 24.7
2014-Sep-17 12:00N 27°11' W 138°19'0 0.2 24.7
2014-Sep-17 10:00N 27°12' W 138°19'1 0.2 24.7
2014-Sep-17 07:00N 27°12' W 138°19'0 0.3 24.8
2014-Sep-17 06:00N 27°12' W 138°20'0 0.2 24.8
2014-Sep-17 04:00N 27°13' W 138°19'0 0.4 24.8
2014-Sep-17 03:00N 27°13' W 138°20'1 0.5 24.8
2014-Sep-17 01:00N 27°14' W 138°21'0 0.1 24.9
2014-Sep-16 23:00N 27°14' W 138°21'1 0.5 24.8
2014-Sep-16 21:00N 27°13' W 138°22'0 0.2 24.8
2014-Sep-16 19:00N 27°13' W 138°22'1 1.4 24.7
2014-Sep-16 18:00N 27°14' W 138°23'0 0.0 24.7
2014-Sep-16 17:00N 27°14' W 138°23'1 0.4 24.7
2014-Sep-16 15:00N 27°13' W 138°22'0 0.1 24.7
2014-Sep-16 14:00N 27°13' W 138°22'0 0.5 24.7
2014-Sep-16 13:00N 27°13' W 138°23'0 0.0 24.7
2014-Sep-16 12:00N 27°13' W 138°23'1 0.2 24.7
2014-Sep-16 09:00N 27°13' W 138°23'1 0.7 24.7
2014-Sep-16 07:00N 27°13' W 138°25'0 0.3 24.7
2014-Sep-16 06:00N 27°12' W 138°25'0 0.1 24.7
2014-Sep-16 03:00N 27°13' W 138°25'0 0.2 24.8
2014-Sep-16 02:00N 27°13' W 138°25'1 0.6 24.8
2014-Sep-16 00:00N 27°13' W 138°26'0 0.0 24.8
2014-Sep-15 23:00N 27°13' W 138°26'1 0.7 24.8
2014-Sep-15 22:00N 27°13' W 138°27'2 0.5 24.8
2014-Sep-15 19:00N 27°12' W 138°29'0 0.2 24.7
2014-Sep-15 18:00N 27°12' W 138°29'1 0.6 24.7
2014-Sep-15 16:00N 27°11' W 138°29'0 0.2 24.6
2014-Sep-15 14:00N 27°11' W 138°29'1 0.3 24.7
2014-Sep-15 12:00N 27°11' W 138°30'1 0.3 24.7
2014-Sep-15 07:00N 27°09' W 138°30'1 0.7 25.0
2014-Sep-15 06:00N 27°09' W 138°31'0 0.1 25.1
2014-Sep-15 02:00N 27°09' W 138°30'1 0.3 25.6
2014-Sep-15 00:00N 27°08' W 138°31'0 0.1 25.6
2014-Sep-14 23:00N 27°08' W 138°31'0 0.1 25.6
2014-Sep-14 22:00N 27°08' W 138°31'1 0.5 25.4
2014-Sep-14 21:00N 27°08' W 138°31'1 0.2 25.3
2014-Sep-14 18:00N 27°08' W 138°32'1 0.9 24.8
2014-Sep-14 17:00N 27°07' W 138°32'0 0.1 24.7
2014-Sep-14 14:00N 27°07' W 138°32'0 0.4 24.6
2014-Sep-14 13:00N 27°07' W 138°33'0 0.2 24.7
2014-Sep-14 12:00N 27°07' W 138°33'1 0.6 24.7
2014-Sep-14 11:00N 27°07' W 138°33'1 0.4 24.7
2014-Sep-14 09:00N 27°06' W 138°33'0 0.1 24.8
2014-Sep-14 07:00N 27°06' W 138°33'0 0.4 25.0
2014-Sep-14 06:00N 27°06' W 138°33'0 0.1 25.1
2014-Sep-14 04:00N 27°06' W 138°33'0 0.2 25.9
2014-Sep-14 02:00N 27°05' W 138°33'0 0.3 26.8
2014-Sep-14 01:00N 27°05' W 138°34'0 0.3 27.9
2014-Sep-14 00:00N 27°05' W 138°34'0 0.2 27.7
2014-Sep-13 22:00N 27°05' W 138°34'0 0.0 27.1
2014-Sep-13 21:00N 27°05' W 138°34'0 0.2 26.4
2014-Sep-13 20:00N 27°05' W 138°35'0 0.4 25.7
2014-Sep-13 19:00N 27°05' W 138°35'0 0.0 25.2
2014-Sep-13 18:00N 27°05' W 138°35'0 0.2 24.8
2014-Sep-13 15:00N 27°04' W 138°35'0 0.3 24.6
2014-Sep-13 14:00N 27°04' W 138°35'   24.6
Track history (hours):
 
Tides and Currents Weather Stations Pressure Air Temp Water Temp Dewpoint Dewpoint Depression Visibility Wind Speed Wind Dir Waves Ship Positions

Drifting buoy 46612

Last reported at 2014-Sep-23 14:00 UTC. Time now 2014-Sep-23 16:24 UTC.
Position N 27°21' W 138°13'.

Water temperature 25.1 ° C

Date/timePositionNaut miles runAvg speedWind from/ knotsBaromVisibWave heightAir tempDewpointWater temp
2014-Sep-23 14:00N 27°21' W 138°13'0 0.3 25.1
2014-Sep-23 13:00N 27°21' W 138°13'1 0.5 25.1
2014-Sep-23 11:00N 27°21' W 138°14'1 0.2 25.2
2014-Sep-23 07:00N 27°21' W 138°15'0 0.2 25.4
2014-Sep-23 05:00N 27°21' W 138°15'1 0.2 25.4
2014-Sep-23 02:00N 27°20' W 138°15'0 0.4 26.0
2014-Sep-23 01:00N 27°20' W 138°16'0 0.5 26.0
2014-Sep-23 00:00N 27°19' W 138°16'0 0.3 26.0
2014-Sep-22 23:00N 27°19' W 138°16'0 0.1 26.3
2014-Sep-22 22:00N 27°19' W 138°16'1 0.8 26.5
2014-Sep-22 21:00N 27°18' W 138°15'0 0.3 26.1
2014-Sep-22 20:00N 27°19' W 138°15'0 0.0 25.7
2014-Sep-22 18:00N 27°19' W 138°15'1 0.4 25.0
2014-Sep-22 16:00N 27°19' W 138°14'0 0.1 24.9
2014-Sep-22 14:00N 27°19' W 138°14'0 0.4 24.9
2014-Sep-22 13:00N 27°19' W 138°14'2 0.3 24.9
2014-Sep-22 07:00N 27°20' W 138°16'2 0.5 25.0
2014-Sep-22 04:00N 27°19' W 138°17'0 0.0 25.0
2014-Sep-22 03:00N 27°19' W 138°17'0 0.4 25.1
2014-Sep-22 02:00N 27°18' W 138°17'1 0.5 25.1
2014-Sep-22 01:00N 27°18' W 138°17'1 0.8 25.2
2014-Sep-22 00:00N 27°17' W 138°17'0 0.0 25.2
2014-Sep-21 23:00N 27°17' W 138°17'0 0.0 25.2
2014-Sep-21 22:00N 27°17' W 138°17'1 0.3 25.2
2014-Sep-21 19:00N 27°17' W 138°16'1 1.1 25.0
2014-Sep-21 18:00N 27°18' W 138°16'2 1.6 24.9
2014-Sep-21 17:00N 27°16' W 138°16'1 0.6 24.9
2014-Sep-21 15:00N 27°17' W 138°16'1 0.4 24.9
2014-Sep-21 13:00N 27°18' W 138°16'2 0.3 24.9
2014-Sep-21 07:00N 27°18' W 138°18'0 0.4 25.0
2014-Sep-21 06:00N 27°18' W 138°19'0 0.4 25.2
2014-Sep-21 05:00N 27°18' W 138°19'1 0.4 25.8
2014-Sep-21 03:00N 27°17' W 138°19'0 0.1 27.1
2014-Sep-21 02:00N 27°17' W 138°19'1 0.9 27.9
2014-Sep-21 01:00N 27°16' W 138°19'1 0.6 27.2
2014-Sep-21 00:00N 27°16' W 138°19'0 0.0 27.2
2014-Sep-20 22:00N 27°16' W 138°19'1 0.4 26.9
2014-Sep-20 20:00N 27°15' W 138°18'0 0.4 25.9
2014-Sep-20 19:00N 27°16' W 138°18'0 0.3 25.4
2014-Sep-20 18:00N 27°16' W 138°18'0 0.0 25.0
2014-Sep-20 17:00N 27°16' W 138°18'1 0.3 24.8
2014-Sep-20 15:00N 27°16' W 138°17'0 0.2 24.8
2014-Sep-20 14:00N 27°16' W 138°17'0 0.3 24.8
2014-Sep-20 13:00N 27°16' W 138°18'1 0.6 24.8
2014-Sep-20 12:00N 27°16' W 138°18'0 0.1 24.8
2014-Sep-20 10:00N 27°16' W 138°18'1 0.5 24.8
2014-Sep-20 08:00N 27°17' W 138°19'0 0.2 24.8
2014-Sep-20 06:00N 27°16' W 138°19'0 0.4 24.8
2014-Sep-20 05:00N 27°17' W 138°19'0 0.1 24.9
2014-Sep-20 04:00N 27°17' W 138°19'1 0.8 24.9
2014-Sep-20 03:00N 27°16' W 138°20'0 0.4 24.9
2014-Sep-20 02:00N 27°16' W 138°20'1 0.5 25.0
2014-Sep-20 00:00N 27°15' W 138°20'1 0.5 25.0
2014-Sep-19 23:00N 27°15' W 138°20'0 0.2 25.0
2014-Sep-19 22:00N 27°15' W 138°20'0 0.0 25.0
2014-Sep-19 21:00N 27°15' W 138°20'1 0.7 24.9
2014-Sep-19 19:00N 27°14' W 138°19'1 0.3 24.8
2014-Sep-19 16:00N 27°14' W 138°18'0 0.0 24.7
2014-Sep-19 15:00N 27°14' W 138°18'1 0.4 24.7
2014-Sep-19 13:00N 27°14' W 138°18'0 0.0 24.7
2014-Sep-19 12:00N 27°14' W 138°18'0 0.0 24.7
2014-Sep-19 11:00N 27°14' W 138°18'1 0.3 24.7
2014-Sep-19 09:00N 27°14' W 138°19'0 0.1 24.8
2014-Sep-19 07:00N 27°15' W 138°19'0 0.2 24.8
2014-Sep-19 06:00N 27°14' W 138°19'0 0.4 24.8
2014-Sep-19 05:00N 27°15' W 138°19'0 0.2 24.8
2014-Sep-19 03:00N 27°15' W 138°19'1 0.6 24.9
2014-Sep-19 01:00N 27°14' W 138°20'0 0.4 25.0
2014-Sep-19 00:00N 27°14' W 138°20'0 0.2 25.0
2014-Sep-18 23:00N 27°13' W 138°20'1 0.5 25.0
2014-Sep-18 21:00N 27°12' W 138°20'1 0.3 24.9
2014-Sep-18 19:00N 27°12' W 138°20'0 0.0 24.8
2014-Sep-18 18:00N 27°12' W 138°20'1 0.3 24.7
2014-Sep-18 16:00N 27°12' W 138°19'1 1.1 24.7
2014-Sep-18 15:00N 27°12' W 138°18'1 0.3 24.7
2014-Sep-18 13:00N 27°12' W 138°18'0 0.0 24.7
2014-Sep-18 12:00N 27°12' W 138°18'0 0.1 24.8
2014-Sep-18 09:00N 27°12' W 138°19'0 0.2 24.8
2014-Sep-18 06:00N 27°12' W 138°19'0 0.2 24.9
2014-Sep-18 04:00N 27°12' W 138°19'0 0.2 25.0
2014-Sep-18 02:00N 27°12' W 138°19'1 0.6 25.1
2014-Sep-18 01:00N 27°12' W 138°19'1 0.6 25.3
2014-Sep-18 00:00N 27°12' W 138°19'1 1.1 25.6
2014-Sep-17 23:00N 27°12' W 138°21'0 0.1 25.2
2014-Sep-17 21:00N 27°12' W 138°20'0 0.0 25.2
2014-Sep-17 20:00N 27°12' W 138°20'1 0.6 24.9
2014-Sep-17 18:00N 27°11' W 138°20'0 0.1 24.7
2014-Sep-17 14:00N 27°11' W 138°19'0 0.1 24.7
2014-Sep-17 13:00N 27°11' W 138°20'0 0.2 24.7
2014-Sep-17 12:00N 27°11' W 138°19'0 0.2 24.7
2014-Sep-17 10:00N 27°12' W 138°19'1 0.2 24.7
2014-Sep-17 07:00N 27°12' W 138°19'0 0.3 24.8
2014-Sep-17 06:00N 27°12' W 138°20'0 0.2 24.8
2014-Sep-17 04:00N 27°13' W 138°19'0 0.4 24.8
2014-Sep-17 03:00N 27°13' W 138°20'1 0.5 24.8
2014-Sep-17 01:00N 27°14' W 138°21'0 0.1 24.9
2014-Sep-16 23:00N 27°14' W 138°21'1 0.5 24.8
2014-Sep-16 21:00N 27°13' W 138°22'0 0.2 24.8
2014-Sep-16 19:00N 27°13' W 138°22'1 1.4 24.7
2014-Sep-16 18:00N 27°14' W 138°23'0 0.0 24.7
2014-Sep-16 17:00N 27°14' W 138°23'1 0.4 24.7
2014-Sep-16 15:00N 27°13' W 138°22'0 0.1 24.7
2014-Sep-16 14:00N 27°13' W 138°22'0 0.5 24.7
2014-Sep-16 13:00N 27°13' W 138°23'0 0.0 24.7
2014-Sep-16 12:00N 27°13' W 138°23'1 0.2 24.7
2014-Sep-16 09:00N 27°13' W 138°23'1 0.7 24.7
2014-Sep-16 07:00N 27°13' W 138°25'0 0.3 24.7
2014-Sep-16 06:00N 27°12' W 138°25'0 0.1 24.7
2014-Sep-16 03:00N 27°13' W 138°25'0 0.2 24.8
2014-Sep-16 02:00N 27°13' W 138°25'1 0.6 24.8
2014-Sep-16 00:00N 27°13' W 138°26'0 0.0 24.8
2014-Sep-15 23:00N 27°13' W 138°26'1 0.7 24.8
2014-Sep-15 22:00N 27°13' W 138°27'2 0.5 24.8
2014-Sep-15 19:00N 27°12' W 138°29'0 0.2 24.7
2014-Sep-15 18:00N 27°12' W 138°29'1 0.6 24.7
2014-Sep-15 16:00N 27°11' W 138°29'0 0.2 24.6
2014-Sep-15 14:00N 27°11' W 138°29'1 0.3 24.7
2014-Sep-15 12:00N 27°11' W 138°30'1 0.3 24.7
2014-Sep-15 07:00N 27°09' W 138°30'1 0.7 25.0
2014-Sep-15 06:00N 27°09' W 138°31'0 0.1 25.1
2014-Sep-15 02:00N 27°09' W 138°30'1 0.3 25.6
2014-Sep-15 00:00N 27°08' W 138°31'0 0.1 25.6
2014-Sep-14 23:00N 27°08' W 138°31'0 0.1 25.6
2014-Sep-14 22:00N 27°08' W 138°31'1 0.5 25.4
2014-Sep-14 21:00N 27°08' W 138°31'1 0.2 25.3
2014-Sep-14 18:00N 27°08' W 138°32'1 0.9 24.8
2014-Sep-14 17:00N 27°07' W 138°32'0 0.1 24.7
2014-Sep-14 14:00N 27°07' W 138°32'0 0.4 24.6
2014-Sep-14 13:00N 27°07' W 138°33'0 0.2 24.7
2014-Sep-14 12:00N 27°07' W 138°33'1 0.6 24.7
2014-Sep-14 11:00N 27°07' W 138°33'1 0.4 24.7
2014-Sep-14 09:00N 27°06' W 138°33'0 0.1 24.8
2014-Sep-14 07:00N 27°06' W 138°33'0 0.4 25.0
2014-Sep-14 06:00N 27°06' W 138°33'0 0.1 25.1
2014-Sep-14 04:00N 27°06' W 138°33'0 0.2 25.9
2014-Sep-14 02:00N 27°05' W 138°33'0 0.3 26.8
2014-Sep-14 01:00N 27°05' W 138°34'0 0.3 27.9
2014-Sep-14 00:00N 27°05' W 138°34'0 0.2 27.7
2014-Sep-13 22:00N 27°05' W 138°34'0 0.0 27.1
2014-Sep-13 21:00N 27°05' W 138°34'0 0.2 26.4
2014-Sep-13 20:00N 27°05' W 138°35'0 0.4 25.7
2014-Sep-13 19:00N 27°05' W 138°35'0 0.0 25.2
2014-Sep-13 18:00N 27°05' W 138°35'0 0.2 24.8
2014-Sep-13 15:00N 27°04' W 138°35'0 0.3 24.6
2014-Sep-13 14:00N 27°04' W 138°35'   24.6

Dump ship's entire track history